RSC61SW GCLP-GCTS
Flight info
| Callsign | RSC61SW |
|---|---|
| Flight time | 0h 20m |
| Altitude | 10000 |
| Route | LOMAS |
| Aircraft | AT76/M-SDFGIRY/S |
Departure
| Time | 2026-04-27 23:49 |
|---|---|
| Airport | Gran Canaria Airport (GCLP) |
Arrival
| Time | 2026-04-28 00:09 |
|---|---|
| Airport | Tenerife Sur Airport (GCTS) |
| Time | Latitude | Longitude | Altitude | Speed | Heading |
|---|---|---|---|---|---|
| 2026-04-27 23:27 | 27.93537 | -15.38778 | 53 ft | 0 kts | 291° |
| 2026-04-27 23:44 | 27.93537 | -15.38779 | 53 ft | 1 kts | 291° |
| 2026-04-27 23:44 | 27.93526 | -15.38846 | 53 ft | 12 kts | 221° |
| 2026-04-27 23:44 | 27.93444 | -15.38836 | 55 ft | 15 kts | 122° |
| 2026-04-27 23:44 | 27.93391 | -15.38748 | 50 ft | 15 kts | 172° |
| 2026-04-27 23:45 | 27.93298 | -15.38801 | 56 ft | 16 kts | 206° |
| 2026-04-27 23:45 | 27.93195 | -15.38852 | 59 ft | 17 kts | 201° |
| 2026-04-27 23:45 | 27.93086 | -15.38905 | 59 ft | 17 kts | 202° |
| 2026-04-27 23:45 | 27.92976 | -15.38957 | 62 ft | 18 kts | 203° |
| 2026-04-27 23:46 | 27.92862 | -15.39007 | 64 ft | 17 kts | 195° |
| 2026-04-27 23:46 | 27.92748 | -15.39054 | 67 ft | 18 kts | 201° |
| 2026-04-27 23:46 | 27.92629 | -15.39106 | 65 ft | 19 kts | 201° |
| 2026-04-27 23:46 | 27.92509 | -15.39159 | 71 ft | 19 kts | 202° |
| 2026-04-27 23:47 | 27.92388 | -15.39212 | 73 ft | 19 kts | 201° |
| 2026-04-27 23:47 | 27.92263 | -15.39267 | 69 ft | 19 kts | 201° |
| 2026-04-27 23:47 | 27.92139 | -15.39314 | 77 ft | 19 kts | 194° |
| 2026-04-27 23:47 | 27.92022 | -15.39374 | 82 ft | 18 kts | 198° |
| 2026-04-27 23:48 | 27.91913 | -15.39365 | 83 ft | 17 kts | 114° |
| 2026-04-27 23:48 | 27.91921 | -15.39243 | 79 ft | 15 kts | 65° |
| 2026-04-27 23:48 | 27.91989 | -15.39186 | 78 ft | 10 kts | 19° |
| 2026-04-27 23:48 | 27.92042 | -15.39162 | 75 ft | 7 kts | 21° |
| 2026-04-27 23:49 | 27.92284 | -15.39056 | 69 ft | 69 kts | 21° |
| 2026-04-27 23:49 | 27.92892 | -15.38795 | 88 ft | 113 kts | 23° |
| 2026-04-27 23:49 | 27.93649 | -15.38440 | 484 ft | 123 kts | 18° |
| 2026-04-27 23:49 | 27.94482 | -15.38078 | 924 ft | 132 kts | 17° |
| 2026-04-27 23:50 | 27.95364 | -15.37703 | 1418 ft | 138 kts | 16° |
| 2026-04-27 23:50 | 27.96301 | -15.37370 | 1836 ft | 146 kts | 13° |
| 2026-04-27 23:50 | 27.97297 | -15.37062 | 2296 ft | 149 kts | 10° |
| 2026-04-27 23:50 | 27.98378 | -15.36905 | 2596 ft | 163 kts | 0° |
| 2026-04-27 23:51 | 27.99518 | -15.36883 | 2992 ft | 165 kts | 358° |
| 2026-04-27 23:51 | 28.00670 | -15.36876 | 3393 ft | 165 kts | 358° |
| 2026-04-27 23:51 | 28.01824 | -15.36882 | 3789 ft | 166 kts | 358° |
| 2026-04-27 23:51 | 28.02967 | -15.36906 | 4167 ft | 167 kts | 358° |
| 2026-04-27 23:52 | 28.04107 | -15.37097 | 4528 ft | 167 kts | 333° |
| 2026-04-27 23:52 | 28.05084 | -15.37831 | 4831 ft | 170 kts | 328° |
| 2026-04-27 23:52 | 28.06072 | -15.38587 | 5189 ft | 172 kts | 328° |
| 2026-04-27 23:52 | 28.07062 | -15.39357 | 5544 ft | 173 kts | 327° |
| 2026-04-27 23:53 | 28.07978 | -15.40247 | 5892 ft | 178 kts | 304° |
| 2026-04-27 23:53 | 28.08373 | -15.41594 | 6145 ft | 183 kts | 289° |
| 2026-04-27 23:53 | 28.08664 | -15.43015 | 6451 ft | 189 kts | 277° |
| 2026-04-27 23:53 | 28.08535 | -15.44482 | 6719 ft | 192 kts | 266° |
| 2026-04-27 23:54 | 28.08382 | -15.45983 | 7047 ft | 192 kts | 269° |
| 2026-04-27 23:54 | 28.08302 | -15.47493 | 7369 ft | 192 kts | 272° |
| 2026-04-27 23:54 | 28.08278 | -15.49003 | 7690 ft | 192 kts | 274° |
| 2026-04-27 23:54 | 28.08291 | -15.50553 | 7833 ft | 202 kts | 274° |
| 2026-04-27 23:55 | 28.08322 | -15.52201 | 7887 ft | 216 kts | 274° |
| 2026-04-27 23:55 | 28.08359 | -15.53953 | 7913 ft | 228 kts | 274° |
| 2026-04-27 23:55 | 28.08387 | -15.55793 | 7927 ft | 238 kts | 273° |
| 2026-04-27 23:55 | 28.08401 | -15.57698 | 7931 ft | 245 kts | 272° |
| 2026-04-27 23:56 | 28.08411 | -15.59650 | 7929 ft | 250 kts | 273° |
| 2026-04-27 23:56 | 28.08419 | -15.61638 | 7932 ft | 254 kts | 272° |
| 2026-04-27 23:56 | 28.08431 | -15.63621 | 7931 ft | 256 kts | 272° |
| 2026-04-27 23:56 | 28.08444 | -15.65644 | 7934 ft | 258 kts | 272° |
| 2026-04-27 23:57 | 28.08455 | -15.67677 | 7913 ft | 258 kts | 272° |
| 2026-04-27 23:57 | 28.08467 | -15.69712 | 7952 ft | 259 kts | 272° |
| 2026-04-27 23:57 | 28.08477 | -15.71775 | 7834 ft | 264 kts | 272° |
| 2026-04-27 23:57 | 28.08488 | -15.73878 | 7677 ft | 269 kts | 272° |
| 2026-04-27 23:58 | 28.08498 | -15.76017 | 7503 ft | 273 kts | 272° |
| 2026-04-27 23:58 | 28.08508 | -15.78180 | 7381 ft | 275 kts | 272° |
| 2026-04-27 23:58 | 28.08512 | -15.80315 | 7289 ft | 275 kts | 272° |
| 2026-04-27 23:58 | 28.08512 | -15.82490 | 7184 ft | 275 kts | 272° |
| 2026-04-27 23:59 | 28.08505 | -15.84655 | 7095 ft | 275 kts | 272° |
| 2026-04-27 23:59 | 28.08496 | -15.86825 | 6992 ft | 276 kts | 272° |
| 2026-04-27 23:59 | 28.08484 | -15.88998 | 6906 ft | 276 kts | 272° |
| 2026-04-27 23:59 | 28.08471 | -15.91173 | 6805 ft | 275 kts | 273° |
| 2026-04-28 00:00 | 28.08499 | -15.93340 | 6713 ft | 275 kts | 274° |
| 2026-04-28 00:00 | 28.08541 | -15.95458 | 6611 ft | 263 kts | 275° |
| 2026-04-28 00:00 | 28.08576 | -15.97499 | 6480 ft | 255 kts | 275° |
| 2026-04-28 00:00 | 28.08593 | -15.99491 | 6308 ft | 252 kts | 274° |
| 2026-04-28 00:01 | 28.08597 | -16.01468 | 6146 ft | 249 kts | 274° |
| 2026-04-28 00:01 | 28.08597 | -16.03399 | 5981 ft | 248 kts | 274° |
| 2026-04-28 00:01 | 28.08596 | -16.05351 | 5816 ft | 247 kts | 274° |
| 2026-04-28 00:01 | 28.08590 | -16.07291 | 5647 ft | 246 kts | 274° |
| 2026-04-28 00:02 | 28.08581 | -16.09228 | 5488 ft | 245 kts | 274° |
| 2026-04-28 00:02 | 28.08581 | -16.10507 | 5383 ft | 245 kts | 274° |
| 2026-04-28 00:02 | 28.08579 | -16.11955 | 5263 ft | 245 kts | 275° |
| 2026-04-28 00:02 | 28.08584 | -16.13880 | 5102 ft | 244 kts | 274° |
| 2026-04-28 00:03 | 28.08593 | -16.15807 | 4941 ft | 244 kts | 275° |
| 2026-04-28 00:03 | 28.08602 | -16.17724 | 4781 ft | 243 kts | 274° |
| 2026-04-28 00:03 | 28.08615 | -16.19642 | 4616 ft | 243 kts | 274° |
| 2026-04-28 00:03 | 28.08627 | -16.21528 | 4449 ft | 243 kts | 274° |
| 2026-04-28 00:04 | 28.08632 | -16.23443 | 4298 ft | 242 kts | 274° |
| 2026-04-28 00:04 | 28.08643 | -16.27247 | 3994 ft | 241 kts | 274° |
| 2026-04-28 00:04 | 28.08642 | -16.29142 | 3835 ft | 240 kts | 273° |
| 2026-04-28 00:05 | 28.08642 | -16.31029 | 3676 ft | 240 kts | 273° |
| 2026-04-28 00:05 | 28.08646 | -16.32915 | 3516 ft | 238 kts | 272° |
| 2026-04-28 00:05 | 28.08650 | -16.34788 | 3356 ft | 237 kts | 273° |
| 2026-04-28 00:05 | 28.08648 | -16.36022 | 3271 ft | 237 kts | 272° |
| 2026-04-28 00:06 | 28.08647 | -16.38523 | 3094 ft | 237 kts | 272° |
| 2026-04-28 00:06 | 28.08643 | -16.40384 | 2960 ft | 236 kts | 272° |
| 2026-04-28 00:06 | 28.08641 | -16.42238 | 2697 ft | 228 kts | 272° |
| 2026-04-28 00:06 | 28.08647 | -16.43928 | 2389 ft | 202 kts | 273° |
| 2026-04-28 00:07 | 28.08504 | -16.45423 | 2271 ft | 189 kts | 259° |
| 2026-04-28 00:07 | 28.08137 | -16.46774 | 2218 ft | 175 kts | 250° |
| 2026-04-28 00:07 | 28.07650 | -16.48071 | 1662 ft | 179 kts | 248° |
| 2026-04-28 00:07 | 28.07183 | -16.49307 | 1412 ft | 165 kts | 250° |
| 2026-04-28 00:08 | 28.06784 | -16.50464 | 1194 ft | 147 kts | 250° |
| 2026-04-28 00:08 | 28.06425 | -16.51508 | 1076 ft | 140 kts | 250° |
| 2026-04-28 00:08 | 28.06080 | -16.52527 | 922 ft | 140 kts | 251° |
| 2026-04-28 00:08 | 28.05722 | -16.53557 | 698 ft | 140 kts | 250° |
| 2026-04-28 00:09 | 28.05375 | -16.54586 | 496 ft | 137 kts | 252° |
| 2026-04-28 00:09 | 28.05025 | -16.55590 | 293 ft | 137 kts | 253° |
| 2026-04-28 00:09 | 28.04689 | -16.56558 | 205 ft | 118 kts | 253° |
| 2026-04-28 00:09 | 28.04546 | -16.57000 | 200 ft | 36 kts | 243° |
| 2026-04-28 00:10 | 28.04455 | -16.57233 | 195 ft | 29 kts | 248° |
| 2026-04-28 00:10 | 28.04390 | -16.57421 | 194 ft | 22 kts | 248° |
| 2026-04-28 00:10 | 28.04341 | -16.57570 | 192 ft | 18 kts | 251° |
| 2026-04-28 00:10 | 28.04303 | -16.57755 | 191 ft | 31 kts | 272° |
| 2026-04-28 00:11 | 28.04295 | -16.57969 | 203 ft | 20 kts | 268° |
| 2026-04-28 00:11 | 28.04290 | -16.58049 | 217 ft | 11 kts | 263° |
| 2026-04-28 00:11 | 28.04291 | -16.58107 | 218 ft | 2 kts | 289° |
| 2026-04-28 00:11 | 28.04317 | -16.58123 | 219 ft | 5 kts | 9° |
| 2026-04-28 00:12 | 28.04337 | -16.58090 | 219 ft | 4 kts | 62° |
| 2026-04-28 00:12 | 28.04353 | -16.58089 | 219 ft | 2 kts | 341° |
| 2026-04-28 00:12 | 28.04372 | -16.58098 | 219 ft | 4 kts | 337° |
| 2026-04-28 00:12 | 28.04399 | -16.58110 | 219 ft | 4 kts | 340° |
| 2026-04-28 00:13 | 28.04403 | -16.58112 | 219 ft | 0 kts | 339° |